sensor_id;sensor_type;location;lat;lon;timestamp;temperature;humidity
14850;DHT22;7517;48.400;11.770;2022-07-23T00:00:43;27.10;57.00
14850;DHT22;7517;48.400;11.770;2022-07-23T00:03:10;27.10;56.80
14850;DHT22;7517;48.400;11.770;2022-07-23T00:05:37;27.10;56.50
14850;DHT22;7517;48.400;11.770;2022-07-23T00:08:07;27.10;56.30
14850;DHT22;7517;48.400;11.770;2022-07-23T00:10:35;27.10;56.40
14850;DHT22;7517;48.400;11.770;2022-07-23T00:13:02;27.10;56.20
14850;DHT22;7517;48.400;11.770;2022-07-23T00:15:29;27.20;56.40
14850;DHT22;7517;48.400;11.770;2022-07-23T00:17:57;27.20;56.30
14850;DHT22;7517;48.400;11.770;2022-07-23T00:20:26;27.20;56.30
14850;DHT22;7517;48.400;11.770;2022-07-23T00:22:54;27.20;56.30
14850;DHT22;7517;48.400;11.770;2022-07-23T00:25:24;27.30;56.40
14850;DHT22;7517;48.400;11.770;2022-07-23T00:27:51;27.30;56.30
14850;DHT22;7517;48.400;11.770;2022-07-23T00:30:19;27.30;56.20
14850;DHT22;7517;48.400;11.770;2022-07-23T00:32:47;27.30;56.40
14850;DHT22;7517;48.400;11.770;2022-07-23T00:35:16;27.30;56.60
14850;DHT22;7517;48.400;11.770;2022-07-23T00:37:46;27.30;56.70
14850;DHT22;7517;48.400;11.770;2022-07-23T00:40:14;27.30;56.50
14850;DHT22;7517;48.400;11.770;2022-07-23T00:42:43;27.30;56.30
14850;DHT22;7517;48.400;11.770;2022-07-23T00:45:11;27.20;56.10
14850;DHT22;7517;48.400;11.770;2022-07-23T00:47:39;27.20;56.00
14850;DHT22;7517;48.400;11.770;2022-07-23T00:50:08;27.20;55.90
14850;DHT22;7517;48.400;11.770;2022-07-23T00:52:37;27.20;55.80
14850;DHT22;7517;48.400;11.770;2022-07-23T00:55:07;27.20;55.70
14850;DHT22;7517;48.400;11.770;2022-07-23T00:57:36;27.20;55.70
14850;DHT22;7517;48.400;11.770;2022-07-23T01:00:08;27.10;56.00
14850;DHT22;7517;48.400;11.770;2022-07-23T01:02:37;27.10;56.00
14850;DHT22;7517;48.400;11.770;2022-07-23T01:05:06;27.10;55.90
14850;DHT22;7517;48.400;11.770;2022-07-23T01:07:34;27.10;56.00
14850;DHT22;7517;48.400;11.770;2022-07-23T01:10:04;27.10;56.10
14850;DHT22;7517;48.400;11.770;2022-07-23T01:12:55;27.10;56.10
14850;DHT22;7517;48.400;11.770;2022-07-23T01:15:24;27.10;55.90
14850;DHT22;7517;48.400;11.770;2022-07-23T01:17:52;27.00;55.90
14850;DHT22;7517;48.400;11.770;2022-07-23T01:20:19;27.10;56.10
14850;DHT22;7517;48.400;11.770;2022-07-23T01:22:48;27.00;56.00
14850;DHT22;7517;48.400;11.770;2022-07-23T01:25:16;27.00;56.00
14850;DHT22;7517;48.400;11.770;2022-07-23T01:27:44;27.00;56.00
14850;DHT22;7517;48.400;11.770;2022-07-23T01:30:12;27.00;56.00
14850;DHT22;7517;48.400;11.770;2022-07-23T01:32:40;27.00;56.20
14850;DHT22;7517;48.400;11.770;2022-07-23T01:35:08;27.00;56.30
14850;DHT22;7517;48.400;11.770;2022-07-23T01:37:36;27.00;56.20
14850;DHT22;7517;48.400;11.770;2022-07-23T01:40:06;27.10;56.00
14850;DHT22;7517;48.400;11.770;2022-07-23T01:42:34;27.10;55.50
14850;DHT22;7517;48.400;11.770;2022-07-23T01:45:08;27.10;55.10
14850;DHT22;7517;48.400;11.770;2022-07-23T01:47:36;27.10;54.50
14850;DHT22;7517;48.400;11.770;2022-07-23T01:50:04;27.10;53.90
14850;DHT22;7517;48.400;11.770;2022-07-23T01:52:32;27.10;53.70
14850;DHT22;7517;48.400;11.770;2022-07-23T01:54:59;27.10;53.50
14850;DHT22;7517;48.400;11.770;2022-07-23T01:57:27;27.10;53.20
14850;DHT22;7517;48.400;11.770;2022-07-23T01:59:54;27.10;53.00
14850;DHT22;7517;48.400;11.770;2022-07-23T02:02:22;27.10;52.90
14850;DHT22;7517;48.400;11.770;2022-07-23T02:04:49;27.10;53.00
14850;DHT22;7517;48.400;11.770;2022-07-23T02:07:17;27.00;53.00
14850;DHT22;7517;48.400;11.770;2022-07-23T02:09:44;27.00;53.10
14850;DHT22;7517;48.400;11.770;2022-07-23T02:12:11;27.00;53.60
14850;DHT22;7517;48.400;11.770;2022-07-23T02:14:40;26.90;53.80
14850;DHT22;7517;48.400;11.770;2022-07-23T02:17:07;26.80;54.30
14850;DHT22;7517;48.400;11.770;2022-07-23T02:19:35;26.80;55.00
14850;DHT22;7517;48.400;11.770;2022-07-23T02:22:02;26.70;55.70
14850;DHT22;7517;48.400;11.770;2022-07-23T02:24:29;26.60;56.20
14850;DHT22;7517;48.400;11.770;2022-07-23T02:26:56;26.50;56.80
14850;DHT22;7517;48.400;11.770;2022-07-23T02:29:23;26.30;57.00
14850;DHT22;7517;48.400;11.770;2022-07-23T02:31:52;26.20;57.60
14850;DHT22;7517;48.400;11.770;2022-07-23T02:34:19;26.00;57.90
14850;DHT22;7517;48.400;11.770;2022-07-23T02:36:46;25.80;58.20
14850;DHT22;7517;48.400;11.770;2022-07-23T02:39:14;25.70;58.40
14850;DHT22;7517;48.400;11.770;2022-07-23T02:41:41;25.60;58.90
14850;DHT22;7517;48.400;11.770;2022-07-23T02:44:08;25.40;59.50
14850;DHT22;7517;48.400;11.770;2022-07-23T02:46:35;25.20;60.20
14850;DHT22;7517;48.400;11.770;2022-07-23T02:49:04;25.10;61.40
14850;DHT22;7517;48.400;11.770;2022-07-23T02:51:31;24.90;62.80
14850;DHT22;7517;48.400;11.770;2022-07-23T02:53:58;24.80;63.60
14850;DHT22;7517;48.400;11.770;2022-07-23T02:56:26;24.70;64.50
14850;DHT22;7517;48.400;11.770;2022-07-23T02:58:53;24.60;65.20
14850;DHT22;7517;48.400;11.770;2022-07-23T03:01:20;24.50;66.10
14850;DHT22;7517;48.400;11.770;2022-07-23T03:03:48;24.40;66.60
14850;DHT22;7517;48.400;11.770;2022-07-23T03:06:16;24.30;67.00
14850;DHT22;7517;48.400;11.770;2022-07-23T03:08:44;24.20;67.80
14850;DHT22;7517;48.400;11.770;2022-07-23T03:11:11;24.20;68.50
14850;DHT22;7517;48.400;11.770;2022-07-23T03:13:38;24.10;69.10
14850;DHT22;7517;48.400;11.770;2022-07-23T03:16:06;24.00;69.70
14850;DHT22;7517;48.400;11.770;2022-07-23T03:18:34;23.90;70.40
14850;DHT22;7517;48.400;11.770;2022-07-23T03:21:02;23.80;71.20
14850;DHT22;7517;48.400;11.770;2022-07-23T03:23:31;23.70;71.60
14850;DHT22;7517;48.400;11.770;2022-07-23T03:25:58;23.60;72.80
14850;DHT22;7517;48.400;11.770;2022-07-23T03:28:25;23.50;72.20
14850;DHT22;7517;48.400;11.770;2022-07-23T03:30:53;23.40;72.70
14850;DHT22;7517;48.400;11.770;2022-07-23T03:33:23;23.50;73.00
14850;DHT22;7517;48.400;11.770;2022-07-23T03:35:55;23.30;73.10
14850;DHT22;7517;48.400;11.770;2022-07-23T03:38:22;23.30;73.80
14850;DHT22;7517;48.400;11.770;2022-07-23T03:40:51;23.20;74.40
14850;DHT22;7517;48.400;11.770;2022-07-23T03:43:18;23.20;74.80
14850;DHT22;7517;48.400;11.770;2022-07-23T03:45:46;23.10;74.80
14850;DHT22;7517;48.400;11.770;2022-07-23T03:48:16;23.10;75.20
14850;DHT22;7517;48.400;11.770;2022-07-23T03:50:46;23.10;75.30
14850;DHT22;7517;48.400;11.770;2022-07-23T03:53:13;23.10;75.80
14850;DHT22;7517;48.400;11.770;2022-07-23T03:55:40;23.10;76.30
14850;DHT22;7517;48.400;11.770;2022-07-23T03:58:09;23.10;76.60
14850;DHT22;7517;48.400;11.770;2022-07-23T04:00:36;23.10;76.80
14850;DHT22;7517;48.400;11.770;2022-07-23T04:03:03;23.10;76.70
14850;DHT22;7517;48.400;11.770;2022-07-23T04:05:31;23.10;77.00
14850;DHT22;7517;48.400;11.770;2022-07-23T04:08:00;23.20;77.20
14850;DHT22;7517;48.400;11.770;2022-07-23T04:10:39;23.20;77.30
14850;DHT22;7517;48.400;11.770;2022-07-23T04:13:06;23.20;77.30
14850;DHT22;7517;48.400;11.770;2022-07-23T04:15:35;23.20;76.90
14850;DHT22;7517;48.400;11.770;2022-07-23T04:18:03;23.20;76.90
14850;DHT22;7517;48.400;11.770;2022-07-23T04:20:34;23.20;76.90
14850;DHT22;7517;48.400;11.770;2022-07-23T04:23:04;23.20;76.70
14850;DHT22;7517;48.400;11.770;2022-07-23T04:25:40;23.20;76.70
14850;DHT22;7517;48.400;11.770;2022-07-23T04:28:08;23.20;76.90
14850;DHT22;7517;48.400;11.770;2022-07-23T04:30:36;23.20;76.80
14850;DHT22;7517;48.400;11.770;2022-07-23T04:33:04;23.20;76.70
14850;DHT22;7517;48.400;11.770;2022-07-23T04:35:34;23.20;76.50
14850;DHT22;7517;48.400;11.770;2022-07-23T04:38:02;23.20;76.60
14850;DHT22;7517;48.400;11.770;2022-07-23T04:40:30;23.10;76.50
14850;DHT22;7517;48.400;11.770;2022-07-23T04:43:00;23.10;76.50
14850;DHT22;7517;48.400;11.770;2022-07-23T04:45:28;23.20;76.90
14850;DHT22;7517;48.400;11.770;2022-07-23T04:47:59;23.10;76.80
14850;DHT22;7517;48.400;11.770;2022-07-23T04:50:29;23.20;77.00
14850;DHT22;7517;48.400;11.770;2022-07-23T04:52:57;23.20;77.00
14850;DHT22;7517;48.400;11.770;2022-07-23T04:55:24;23.20;76.90
14850;DHT22;7517;48.400;11.770;2022-07-23T04:57:52;23.20;77.00
14850;DHT22;7517;48.400;11.770;2022-07-23T05:00:19;23.20;76.80
14850;DHT22;7517;48.400;11.770;2022-07-23T05:02:46;23.20;76.60
14850;DHT22;7517;48.400;11.770;2022-07-23T05:05:18;23.30;76.80
14850;DHT22;7517;48.400;11.770;2022-07-23T05:07:45;23.30;77.10
14850;DHT22;7517;48.400;11.770;2022-07-23T05:10:15;23.30;76.90
14850;DHT22;7517;48.400;11.770;2022-07-23T05:12:46;23.30;77.10
14850;DHT22;7517;48.400;11.770;2022-07-23T05:15:13;23.30;77.00
14850;DHT22;7517;48.400;11.770;2022-07-23T05:17:43;23.40;77.10
14850;DHT22;7517;48.400;11.770;2022-07-23T05:20:10;23.40;76.90
14850;DHT22;7517;48.400;11.770;2022-07-23T05:22:40;23.40;76.80
14850;DHT22;7517;48.400;11.770;2022-07-23T05:25:08;23.40;77.00
14850;DHT22;7517;48.400;11.770;2022-07-23T05:27:35;23.40;77.00
14850;DHT22;7517;48.400;11.770;2022-07-23T05:30:07;23.40;76.90
14850;DHT22;7517;48.400;11.770;2022-07-23T05:32:35;23.50;76.90
14850;DHT22;7517;48.400;11.770;2022-07-23T05:35:06;23.50;77.00
14850;DHT22;7517;48.400;11.770;2022-07-23T05:37:34;23.50;77.00
14850;DHT22;7517;48.400;11.770;2022-07-23T05:40:09;23.50;76.90
14850;DHT22;7517;48.400;11.770;2022-07-23T05:42:40;23.50;77.00
14850;DHT22;7517;48.400;11.770;2022-07-23T05:45:09;23.60;77.00
14850;DHT22;7517;48.400;11.770;2022-07-23T05:47:44;23.60;77.20
14850;DHT22;7517;48.400;11.770;2022-07-23T05:50:12;23.60;77.80
14850;DHT22;7517;48.400;11.770;2022-07-23T05:52:42;23.60;77.50
14850;DHT22;7517;48.400;11.770;2022-07-23T05:55:12;23.70;77.60
14850;DHT22;7517;48.400;11.770;2022-07-23T05:57:39;23.70;77.40
14850;DHT22;7517;48.400;11.770;2022-07-23T06:00:08;23.70;77.40
14850;DHT22;7517;48.400;11.770;2022-07-23T06:02:37;23.70;77.50
14850;DHT22;7517;48.400;11.770;2022-07-23T06:05:06;23.80;77.60
14850;DHT22;7517;48.400;11.770;2022-07-23T06:07:35;23.80;77.60
14850;DHT22;7517;48.400;11.770;2022-07-23T06:10:03;23.80;77.50
14850;DHT22;7517;48.400;11.770;2022-07-23T06:12:32;23.90;77.60
14850;DHT22;7517;48.400;11.770;2022-07-23T06:15:00;23.90;77.50
14850;DHT22;7517;48.400;11.770;2022-07-23T06:17:27;23.90;77.30
14850;DHT22;7517;48.400;11.770;2022-07-23T06:19:55;24.00;77.30
14850;DHT22;7517;48.400;11.770;2022-07-23T06:22:22;24.00;77.40
14850;DHT22;7517;48.400;11.770;2022-07-23T06:24:50;24.00;77.20
14850;DHT22;7517;48.400;11.770;2022-07-23T06:27:17;24.10;77.00
14850;DHT22;7517;48.400;11.770;2022-07-23T06:29:46;24.10;76.90
14850;DHT22;7517;48.400;11.770;2022-07-23T06:32:13;24.10;76.90
14850;DHT22;7517;48.400;11.770;2022-07-23T06:34:41;24.20;77.00
14850;DHT22;7517;48.400;11.770;2022-07-23T06:37:08;24.20;77.00
14850;DHT22;7517;48.400;11.770;2022-07-23T06:39:35;24.20;77.00
14850;DHT22;7517;48.400;11.770;2022-07-23T06:42:03;24.20;76.60
14850;DHT22;7517;48.400;11.770;2022-07-23T06:44:31;24.20;76.40
14850;DHT22;7517;48.400;11.770;2022-07-23T06:46:59;24.20;76.10
14850;DHT22;7517;48.400;11.770;2022-07-23T06:49:26;24.20;76.20
14850;DHT22;7517;48.400;11.770;2022-07-23T06:51:54;24.30;75.80
14850;DHT22;7517;48.400;11.770;2022-07-23T06:54:21;24.30;75.80
14850;DHT22;7517;48.400;11.770;2022-07-23T06:56:48;24.30;76.20
14850;DHT22;7517;48.400;11.770;2022-07-23T06:59:15;24.30;76.10
14850;DHT22;7517;48.400;11.770;2022-07-23T07:01:43;24.40;76.10
14850;DHT22;7517;48.400;11.770;2022-07-23T07:04:11;24.40;76.20
14850;DHT22;7517;48.400;11.770;2022-07-23T07:06:39;24.40;76.40
14850;DHT22;7517;48.400;11.770;2022-07-23T07:09:06;24.40;76.40
14850;DHT22;7517;48.400;11.770;2022-07-23T07:11:33;24.50;76.70
14850;DHT22;7517;48.400;11.770;2022-07-23T07:14:01;24.50;76.80
14850;DHT22;7517;48.400;11.770;2022-07-23T07:16:29;24.60;76.60
14850;DHT22;7517;48.400;11.770;2022-07-23T07:18:57;24.60;76.30
14850;DHT22;7517;48.400;11.770;2022-07-23T07:21:25;24.60;75.90
14850;DHT22;7517;48.400;11.770;2022-07-23T07:23:53;24.70;75.50
14850;DHT22;7517;48.400;11.770;2022-07-23T07:26:20;24.70;75.50
14850;DHT22;7517;48.400;11.770;2022-07-23T07:28:47;24.70;75.70
14850;DHT22;7517;48.400;11.770;2022-07-23T07:31:14;24.80;75.80
14850;DHT22;7517;48.400;11.770;2022-07-23T07:33:42;24.80;75.70
14850;DHT22;7517;48.400;11.770;2022-07-23T07:36:10;24.90;75.40
14850;DHT22;7517;48.400;11.770;2022-07-23T07:38:38;24.90;75.30
14850;DHT22;7517;48.400;11.770;2022-07-23T07:41:05;24.90;74.90
14850;DHT22;7517;48.400;11.770;2022-07-23T07:43:35;25.00;74.70
14850;DHT22;7517;48.400;11.770;2022-07-23T07:46:03;25.00;74.80
14850;DHT22;7517;48.400;11.770;2022-07-23T07:48:31;25.00;74.90
14850;DHT22;7517;48.400;11.770;2022-07-23T07:50:58;25.00;75.00
14850;DHT22;7517;48.400;11.770;2022-07-23T07:53:25;25.10;74.70
14850;DHT22;7517;48.400;11.770;2022-07-23T07:55:54;25.10;74.80
14850;DHT22;7517;48.400;11.770;2022-07-23T07:58:21;25.20;75.00
14850;DHT22;7517;48.400;11.770;2022-07-23T08:00:49;25.20;75.00
14850;DHT22;7517;48.400;11.770;2022-07-23T08:03:16;25.20;74.80
14850;DHT22;7517;48.400;11.770;2022-07-23T08:05:44;25.20;74.70
14850;DHT22;7517;48.400;11.770;2022-07-23T08:08:11;25.20;74.50
14850;DHT22;7517;48.400;11.770;2022-07-23T08:10:41;25.20;74.40
14850;DHT22;7517;48.400;11.770;2022-07-23T08:13:13;25.20;74.50
14850;DHT22;7517;48.400;11.770;2022-07-23T08:15:41;25.20;74.70
14850;DHT22;7517;48.400;11.770;2022-07-23T08:18:09;25.20;74.90
14850;DHT22;7517;48.400;11.770;2022-07-23T08:20:37;25.20;75.00
14850;DHT22;7517;48.400;11.770;2022-07-23T08:23:05;25.20;75.00
14850;DHT22;7517;48.400;11.770;2022-07-23T08:25:35;25.20;74.90
14850;DHT22;7517;48.400;11.770;2022-07-23T08:28:05;25.10;75.10
14850;DHT22;7517;48.400;11.770;2022-07-23T08:30:37;25.10;75.10
14850;DHT22;7517;48.400;11.770;2022-07-23T08:33:06;25.10;75.20
14850;DHT22;7517;48.400;11.770;2022-07-23T08:35:38;25.10;75.20
14850;DHT22;7517;48.400;11.770;2022-07-23T08:38:08;25.10;75.20
14850;DHT22;7517;48.400;11.770;2022-07-23T08:40:38;25.10;75.00
14850;DHT22;7517;48.400;11.770;2022-07-23T08:43:09;25.10;75.40
14850;DHT22;7517;48.400;11.770;2022-07-23T08:45:41;25.10;75.10
14850;DHT22;7517;48.400;11.770;2022-07-23T08:48:12;25.10;75.00
14850;DHT22;7517;48.400;11.770;2022-07-23T08:50:42;25.00;75.00
14850;DHT22;7517;48.400;11.770;2022-07-23T08:53:11;25.00;75.20
14850;DHT22;7517;48.400;11.770;2022-07-23T08:55:39;25.00;75.10
14850;DHT22;7517;48.400;11.770;2022-07-23T08:58:06;25.00;75.20
14850;DHT22;7517;48.400;11.770;2022-07-23T09:00:33;25.00;75.30
14850;DHT22;7517;48.400;11.770;2022-07-23T09:03:02;25.00;75.00
14850;DHT22;7517;48.400;11.770;2022-07-23T09:05:30;25.00;74.60
14850;DHT22;7517;48.400;11.770;2022-07-23T09:08:05;25.00;74.30
14850;DHT22;7517;48.400;11.770;2022-07-23T09:10:58;25.00;74.50
14850;DHT22;7517;48.400;11.770;2022-07-23T09:13:32;25.00;74.50
14850;DHT22;7517;48.400;11.770;2022-07-23T09:16:05;25.00;74.80
14850;DHT22;7517;48.400;11.770;2022-07-23T09:18:38;25.00;75.60
14850;DHT22;7517;48.400;11.770;2022-07-23T09:21:17;25.00;76.10
14850;DHT22;7517;48.400;11.770;2022-07-23T09:23:49;25.00;76.40
14850;DHT22;7517;48.400;11.770;2022-07-23T09:29:10;25.30;77.10
14850;DHT22;7517;48.400;11.770;2022-07-23T09:31:44;25.40;77.60
14850;DHT22;7517;48.400;11.770;2022-07-23T09:34:20;25.60;78.30
14850;DHT22;7517;48.400;11.770;2022-07-23T09:36:51;25.80;77.70
14850;DHT22;7517;48.400;11.770;2022-07-23T09:39:28;26.00;77.40
14850;DHT22;7517;48.400;11.770;2022-07-23T09:42:12;26.20;77.60
14850;DHT22;7517;48.400;11.770;2022-07-23T09:44:42;26.50;77.30
14850;DHT22;7517;48.400;11.770;2022-07-23T09:47:10;26.70;76.10
14850;DHT22;7517;48.400;11.770;2022-07-23T09:49:43;26.80;74.50
14850;DHT22;7517;48.400;11.770;2022-07-23T09:52:26;27.00;74.20
14850;DHT22;7517;48.400;11.770;2022-07-23T09:54:58;27.10;73.60
14850;DHT22;7517;48.400;11.770;2022-07-23T09:57:27;27.30;73.20
14850;DHT22;7517;48.400;11.770;2022-07-23T09:59:57;27.40;73.10
14850;DHT22;7517;48.400;11.770;2022-07-23T10:02:28;27.50;73.60
14850;DHT22;7517;48.400;11.770;2022-07-23T10:05:00;27.60;73.90
14850;DHT22;7517;48.400;11.770;2022-07-23T10:07:34;27.80;74.30
14850;DHT22;7517;48.400;11.770;2022-07-23T10:10:05;28.00;73.20
14850;DHT22;7517;48.400;11.770;2022-07-23T10:12:33;28.30;73.10
14850;DHT22;7517;48.400;11.770;2022-07-23T10:15:13;28.60;72.80
14850;DHT22;7517;48.400;11.770;2022-07-23T10:17:40;28.80;72.50
14850;DHT22;7517;48.400;11.770;2022-07-23T10:20:10;29.10;71.00
14850;DHT22;7517;48.400;11.770;2022-07-23T10:22:40;29.40;71.00
14850;DHT22;7517;48.400;11.770;2022-07-23T10:25:21;29.60;70.90
14850;DHT22;7517;48.400;11.770;2022-07-23T10:28:09;29.90;68.80
14850;DHT22;7517;48.400;11.770;2022-07-23T10:31:00;30.10;67.60
14850;DHT22;7517;48.400;11.770;2022-07-23T10:33:41;30.40;67.00
14850;DHT22;7517;48.400;11.770;2022-07-23T10:36:22;30.60;65.60
14850;DHT22;7517;48.400;11.770;2022-07-23T10:39:03;30.80;65.90
14850;DHT22;7517;48.400;11.770;2022-07-23T10:41:36;31.10;65.00
14850;DHT22;7517;48.400;11.770;2022-07-23T10:44:07;31.30;64.50
14850;DHT22;7517;48.400;11.770;2022-07-23T10:46:35;31.50;63.20
14850;DHT22;7517;48.400;11.770;2022-07-23T10:49:26;31.70;63.30
14850;DHT22;7517;48.400;11.770;2022-07-23T10:52:24;31.80;61.00
14850;DHT22;7517;48.400;11.770;2022-07-23T10:54:54;32.00;59.90
14850;DHT22;7517;48.400;11.770;2022-07-23T10:57:24;32.10;59.90
14850;DHT22;7517;48.400;11.770;2022-07-23T11:00:12;32.20;60.40
14850;DHT22;7517;48.400;11.770;2022-07-23T11:02:45;32.30;57.90
14850;DHT22;7517;48.400;11.770;2022-07-23T11:05:14;32.30;58.80
14850;DHT22;7517;48.400;11.770;2022-07-23T11:08:16;32.30;59.00
14850;DHT22;7517;48.400;11.770;2022-07-23T11:10:50;32.20;57.50
14850;DHT22;7517;48.400;11.770;2022-07-23T11:13:36;32.20;57.80
14850;DHT22;7517;48.400;11.770;2022-07-23T11:16:14;32.10;56.70
14850;DHT22;7517;48.400;11.770;2022-07-23T11:19:06;32.00;57.00
14850;DHT22;7517;48.400;11.770;2022-07-23T11:21:49;31.90;56.70
14850;DHT22;7517;48.400;11.770;2022-07-23T11:24:25;31.90;57.60
14850;DHT22;7517;48.400;11.770;2022-07-23T11:27:00;31.80;57.60
14850;DHT22;7517;48.400;11.770;2022-07-23T11:29:44;31.70;57.50
14850;DHT22;7517;48.400;11.770;2022-07-23T11:35:22;31.60;56.60
14850;DHT22;7517;48.400;11.770;2022-07-23T11:37:54;31.50;56.50
14850;DHT22;7517;48.400;11.770;2022-07-23T11:40:31;31.40;57.40
14850;DHT22;7517;48.400;11.770;2022-07-23T11:43:00;31.40;57.60
14850;DHT22;7517;48.400;11.770;2022-07-23T11:45:32;31.30;57.60
14850;DHT22;7517;48.400;11.770;2022-07-23T11:48:01;31.30;56.90
14850;DHT22;7517;48.400;11.770;2022-07-23T11:50:29;31.20;56.60
14850;DHT22;7517;48.400;11.770;2022-07-23T11:52:57;31.20;56.40
14850;DHT22;7517;48.400;11.770;2022-07-23T11:55:25;31.20;56.40
14850;DHT22;7517;48.400;11.770;2022-07-23T11:57:56;31.10;56.60
14850;DHT22;7517;48.400;11.770;2022-07-23T12:00:26;31.10;56.50
14850;DHT22;7517;48.400;11.770;2022-07-23T12:02:56;31.10;56.10
14850;DHT22;7517;48.400;11.770;2022-07-23T12:05:29;31.10;55.30
14850;DHT22;7517;48.400;11.770;2022-07-23T12:07:59;31.00;55.30
14850;DHT22;7517;48.400;11.770;2022-07-23T12:10:29;31.00;55.40
14850;DHT22;7517;48.400;11.770;2022-07-23T12:13:03;31.10;55.70
14850;DHT22;7517;48.400;11.770;2022-07-23T12:15:35;31.10;55.10
14850;DHT22;7517;48.400;11.770;2022-07-23T12:18:06;31.10;55.20
14850;DHT22;7517;48.400;11.770;2022-07-23T12:20:39;31.10;55.20
14850;DHT22;7517;48.400;11.770;2022-07-23T12:23:10;31.10;54.40
14850;DHT22;7517;48.400;11.770;2022-07-23T12:25:40;31.10;54.40
14850;DHT22;7517;48.400;11.770;2022-07-23T12:28:13;31.20;54.20
14850;DHT22;7517;48.400;11.770;2022-07-23T12:30:44;31.20;53.90
14850;DHT22;7517;48.400;11.770;2022-07-23T12:33:13;31.20;53.80
14850;DHT22;7517;48.400;11.770;2022-07-23T12:35:45;31.20;54.00
14850;DHT22;7517;48.400;11.770;2022-07-23T12:38:15;31.20;54.00
14850;DHT22;7517;48.400;11.770;2022-07-23T12:40:46;31.30;54.00
14850;DHT22;7517;48.400;11.770;2022-07-23T12:43:22;31.30;53.80
14850;DHT22;7517;48.400;11.770;2022-07-23T12:45:56;31.30;53.10
14850;DHT22;7517;48.400;11.770;2022-07-23T12:48:28;31.40;53.40
14850;DHT22;7517;48.400;11.770;2022-07-23T12:50:59;31.40;54.00
14850;DHT22;7517;48.400;11.770;2022-07-23T12:53:37;31.40;53.20
14850;DHT22;7517;48.400;11.770;2022-07-23T12:56:08;31.40;52.60
14850;DHT22;7517;48.400;11.770;2022-07-23T12:58:47;31.40;53.00
14850;DHT22;7517;48.400;11.770;2022-07-23T13:01:28;31.40;53.20
14850;DHT22;7517;48.400;11.770;2022-07-23T13:04:01;31.40;53.20
14850;DHT22;7517;48.400;11.770;2022-07-23T13:06:31;31.40;53.30
14850;DHT22;7517;48.400;11.770;2022-07-23T13:09:07;31.40;53.40
14850;DHT22;7517;48.400;11.770;2022-07-23T13:11:35;31.40;53.00
14850;DHT22;7517;48.400;11.770;2022-07-23T13:14:05;31.40;52.70
14850;DHT22;7517;48.400;11.770;2022-07-23T13:16:35;31.40;52.40
14850;DHT22;7517;48.400;11.770;2022-07-23T13:19:06;31.40;52.90
14850;DHT22;7517;48.400;11.770;2022-07-23T13:21:34;31.40;52.40
14850;DHT22;7517;48.400;11.770;2022-07-23T13:24:04;31.40;52.50
14850;DHT22;7517;48.400;11.770;2022-07-23T13:26:32;31.40;53.00
14850;DHT22;7517;48.400;11.770;2022-07-23T13:29:03;31.40;53.10
14850;DHT22;7517;48.400;11.770;2022-07-23T13:31:35;31.40;52.90
14850;DHT22;7517;48.400;11.770;2022-07-23T13:34:07;31.40;53.20
14850;DHT22;7517;48.400;11.770;2022-07-23T13:36:35;31.40;52.90
14850;DHT22;7517;48.400;11.770;2022-07-23T13:39:04;31.40;52.90
14850;DHT22;7517;48.400;11.770;2022-07-23T13:41:38;31.40;52.70
14850;DHT22;7517;48.400;11.770;2022-07-23T13:44:15;31.40;53.10
14850;DHT22;7517;48.400;11.770;2022-07-23T13:46:50;31.40;53.00
14850;DHT22;7517;48.400;11.770;2022-07-23T13:49:29;31.50;53.00
14850;DHT22;7517;48.400;11.770;2022-07-23T13:51:59;31.40;53.10
14850;DHT22;7517;48.400;11.770;2022-07-23T13:54:30;31.40;53.10
14850;DHT22;7517;48.400;11.770;2022-07-23T13:56:57;31.40;52.80
14850;DHT22;7517;48.400;11.770;2022-07-23T13:59:38;31.40;52.70
14850;DHT22;7517;48.400;11.770;2022-07-23T14:02:08;31.40;53.10
14850;DHT22;7517;48.400;11.770;2022-07-23T14:04:38;31.40;53.20
14850;DHT22;7517;48.400;11.770;2022-07-23T14:07:09;31.40;53.10
14850;DHT22;7517;48.400;11.770;2022-07-23T14:09:37;31.40;52.90
14850;DHT22;7517;48.400;11.770;2022-07-23T14:12:08;31.40;52.80
14850;DHT22;7517;48.400;11.770;2022-07-23T14:14:43;31.40;52.80
14850;DHT22;7517;48.400;11.770;2022-07-23T14:17:10;31.40;52.70
14850;DHT22;7517;48.400;11.770;2022-07-23T14:19:38;31.40;53.00
14850;DHT22;7517;48.400;11.770;2022-07-23T14:22:08;31.40;53.30
14850;DHT22;7517;48.400;11.770;2022-07-23T14:24:41;31.40;53.00
14850;DHT22;7517;48.400;11.770;2022-07-23T14:27:09;31.30;53.80
14850;DHT22;7517;48.400;11.770;2022-07-23T14:29:36;31.30;53.30
14850;DHT22;7517;48.400;11.770;2022-07-23T14:32:05;31.20;53.20
14850;DHT22;7517;48.400;11.770;2022-07-23T14:34:33;31.20;52.90
14850;DHT22;7517;48.400;11.770;2022-07-23T14:37:01;31.20;53.10
14850;DHT22;7517;48.400;11.770;2022-07-23T14:39:28;31.10;52.90
14850;DHT22;7517;48.400;11.770;2022-07-23T14:41:56;31.10;53.00
14850;DHT22;7517;48.400;11.770;2022-07-23T14:44:23;31.10;53.00
14850;DHT22;7517;48.400;11.770;2022-07-23T14:46:50;31.00;53.20
14850;DHT22;7517;48.400;11.770;2022-07-23T14:49:20;31.00;53.20
14850;DHT22;7517;48.400;11.770;2022-07-23T14:51:48;30.90;53.50
14850;DHT22;7517;48.400;11.770;2022-07-23T14:54:16;30.90;53.50
14850;DHT22;7517;48.400;11.770;2022-07-23T14:56:43;30.80;53.50
14850;DHT22;7517;48.400;11.770;2022-07-23T14:59:10;30.80;53.70
14850;DHT22;7517;48.400;11.770;2022-07-23T15:01:43;30.80;53.60
14850;DHT22;7517;48.400;11.770;2022-07-23T15:04:16;30.80;53.70
14850;DHT22;7517;48.400;11.770;2022-07-23T15:06:47;30.80;53.90
14850;DHT22;7517;48.400;11.770;2022-07-23T15:09:17;30.80;53.90
14850;DHT22;7517;48.400;11.770;2022-07-23T15:11:50;30.80;54.00
14850;DHT22;7517;48.400;11.770;2022-07-23T15:14:25;30.80;54.20
14850;DHT22;7517;48.400;11.770;2022-07-23T15:17:01;30.80;54.10
14850;DHT22;7517;48.400;11.770;2022-07-23T15:19:28;30.80;54.30
14850;DHT22;7517;48.400;11.770;2022-07-23T15:22:00;30.80;54.20
14850;DHT22;7517;48.400;11.770;2022-07-23T15:24:38;30.80;53.90
14850;DHT22;7517;48.400;11.770;2022-07-23T15:27:05;30.80;53.80
14850;DHT22;7517;48.400;11.770;2022-07-23T15:29:39;30.70;53.80
14850;DHT22;7517;48.400;11.770;2022-07-23T15:32:07;30.70;53.70
14850;DHT22;7517;48.400;11.770;2022-07-23T15:34:39;30.60;53.70
14850;DHT22;7517;48.400;11.770;2022-07-23T15:37:08;30.60;53.80
14850;DHT22;7517;48.400;11.770;2022-07-23T15:39:35;30.50;53.80
14850;DHT22;7517;48.400;11.770;2022-07-23T15:42:03;30.40;53.80
14850;DHT22;7517;48.400;11.770;2022-07-23T15:44:30;30.40;53.80
14850;DHT22;7517;48.400;11.770;2022-07-23T15:46:58;30.30;54.10
14850;DHT22;7517;48.400;11.770;2022-07-23T15:49:25;30.30;54.40
14850;DHT22;7517;48.400;11.770;2022-07-23T15:51:55;30.20;54.20
14850;DHT22;7517;48.400;11.770;2022-07-23T15:54:24;30.20;54.20